sensor_id;sensor_type;location;lat;lon;timestamp;P1;durP1;ratioP1;P2;durP2;ratioP2
70010;SDS011;59543;37.950;-122.338;2022-10-16T00:01:36;22.65;;;8.23;;
70010;SDS011;59543;37.950;-122.338;2022-10-16T00:04:03;87.88;;;10.63;;
70010;SDS011;59543;37.950;-122.338;2022-10-16T00:06:30;21.45;;;8.38;;
70010;SDS011;59543;37.950;-122.338;2022-10-16T00:08:59;32.78;;;8.85;;
70010;SDS011;59543;37.950;-122.338;2022-10-16T00:11:30;19.67;;;8.18;;
70010;SDS011;59543;37.950;-122.338;2022-10-16T00:14:04;40.88;;;9.05;;
70010;SDS011;59543;37.950;-122.338;2022-10-16T00:16:33;17.05;;;8.55;;
70010;SDS011;59543;37.950;-122.338;2022-10-16T00:19:00;22.52;;;8.07;;
70010;SDS011;59543;37.950;-122.338;2022-10-16T00:21:27;24.08;;;8.30;;
70010;SDS011;59543;37.950;-122.338;2022-10-16T00:23:56;18.50;;;7.80;;
70010;SDS011;59543;37.950;-122.338;2022-10-16T00:26:25;20.33;;;7.82;;
70010;SDS011;59543;37.950;-122.338;2022-10-16T00:28:53;17.52;;;7.70;;
70010;SDS011;59543;37.950;-122.338;2022-10-16T00:31:20;19.13;;;7.30;;
70010;SDS011;59543;37.950;-122.338;2022-10-16T00:33:47;18.92;;;7.78;;
70010;SDS011;59543;37.950;-122.338;2022-10-16T00:36:15;20.90;;;8.13;;
70010;SDS011;59543;37.950;-122.338;2022-10-16T00:38:43;17.77;;;7.93;;
70010;SDS011;59543;37.950;-122.338;2022-10-16T00:41:11;17.23;;;8.55;;
70010;SDS011;59543;37.950;-122.338;2022-10-16T00:46:21;25.52;;;12.10;;
70010;SDS011;59543;37.950;-122.338;2022-10-16T00:49:01;22.80;;;8.40;;
70010;SDS011;59543;37.950;-122.338;2022-10-16T00:51:33;21.75;;;8.05;;
70010;SDS011;59543;37.950;-122.338;2022-10-16T00:54:02;26.55;;;9.25;;
70010;SDS011;59543;37.950;-122.338;2022-10-16T00:56:32;21.35;;;7.68;;
70010;SDS011;59543;37.950;-122.338;2022-10-16T00:58:59;29.00;;;8.27;;
70010;SDS011;59543;37.950;-122.338;2022-10-16T01:01:29;17.50;;;8.20;;
70010;SDS011;59543;37.950;-122.338;2022-10-16T01:03:55;27.15;;;7.80;;
70010;SDS011;59543;37.950;-122.338;2022-10-16T01:06:23;22.13;;;8.18;;
70010;SDS011;59543;37.950;-122.338;2022-10-16T01:11:44;26.38;;;8.45;;
70010;SDS011;59543;37.950;-122.338;2022-10-16T01:17:18;22.60;;;8.00;;
70010;SDS011;59543;37.950;-122.338;2022-10-16T01:22:15;19.73;;;8.65;;
70010;SDS011;59543;37.950;-122.338;2022-10-16T01:24:44;22.50;;;8.55;;
70010;SDS011;59543;37.950;-122.338;2022-10-16T01:27:47;23.50;;;8.32;;
70010;SDS011;59543;37.950;-122.338;2022-10-16T01:30:10;20.02;;;7.97;;
70010;SDS011;59543;37.950;-122.338;2022-10-16T01:32:40;20.45;;;8.25;;
70010;SDS011;59543;37.950;-122.338;2022-10-16T01:35:22;28.13;;;8.88;;
70010;SDS011;59543;37.950;-122.338;2022-10-16T01:37:54;19.40;;;8.45;;
70010;SDS011;59543;37.950;-122.338;2022-10-16T01:40:35;25.00;;;9.05;;
70010;SDS011;59543;37.950;-122.338;2022-10-16T01:43:07;21.80;;;9.13;;
70010;SDS011;59543;37.950;-122.338;2022-10-16T01:45:37;23.50;;;9.02;;
70010;SDS011;59543;37.950;-122.338;2022-10-16T01:48:06;32.28;;;9.35;;
70010;SDS011;59543;37.950;-122.338;2022-10-16T01:50:35;19.52;;;8.63;;
70010;SDS011;59543;37.950;-122.338;2022-10-16T01:53:05;28.38;;;9.80;;
70010;SDS011;59543;37.950;-122.338;2022-10-16T01:55:36;19.33;;;9.23;;
70010;SDS011;59543;37.950;-122.338;2022-10-16T01:58:09;27.10;;;9.98;;
70010;SDS011;59543;37.950;-122.338;2022-10-16T02:00:38;30.23;;;9.25;;
70010;SDS011;59543;37.950;-122.338;2022-10-16T02:03:06;25.25;;;9.27;;
70010;SDS011;59543;37.950;-122.338;2022-10-16T02:05:36;21.23;;;9.25;;
70010;SDS011;59543;37.950;-122.338;2022-10-16T02:10:36;24.87;;;9.47;;
70010;SDS011;59543;37.950;-122.338;2022-10-16T02:13:06;26.20;;;9.57;;
70010;SDS011;59543;37.950;-122.338;2022-10-16T02:15:34;32.13;;;9.50;;
70010;SDS011;59543;37.950;-122.338;2022-10-16T02:18:01;27.95;;;9.95;;
70010;SDS011;59543;37.950;-122.338;2022-10-16T02:20:30;24.60;;;9.32;;
70010;SDS011;59543;37.950;-122.338;2022-10-16T02:23:01;23.80;;;8.77;;
70010;SDS011;59543;37.950;-122.338;2022-10-16T02:25:34;19.85;;;9.63;;
70010;SDS011;59543;37.950;-122.338;2022-10-16T02:33:24;25.15;;;9.05;;
70010;SDS011;59543;37.950;-122.338;2022-10-16T02:35:52;25.75;;;9.48;;
70010;SDS011;59543;37.950;-122.338;2022-10-16T02:38:20;30.02;;;9.75;;
70010;SDS011;59543;37.950;-122.338;2022-10-16T02:40:48;26.05;;;9.30;;
70010;SDS011;59543;37.950;-122.338;2022-10-16T02:43:14;24.92;;;8.38;;
70010;SDS011;59543;37.950;-122.338;2022-10-16T02:45:41;26.77;;;9.40;;
70010;SDS011;59543;37.950;-122.338;2022-10-16T02:48:08;22.98;;;9.65;;
70010;SDS011;59543;37.950;-122.338;2022-10-16T02:50:34;24.45;;;9.50;;
70010;SDS011;59543;37.950;-122.338;2022-10-16T02:53:01;22.42;;;9.70;;
70010;SDS011;59543;37.950;-122.338;2022-10-16T02:55:27;24.42;;;9.18;;
70010;SDS011;59543;37.950;-122.338;2022-10-16T02:57:53;25.00;;;9.25;;
70010;SDS011;59543;37.950;-122.338;2022-10-16T03:00:20;24.15;;;9.43;;
70010;SDS011;59543;37.950;-122.338;2022-10-16T03:02:46;23.20;;;9.43;;
70010;SDS011;59543;37.950;-122.338;2022-10-16T03:05:13;21.80;;;9.20;;
70010;SDS011;59543;37.950;-122.338;2022-10-16T03:07:40;27.80;;;9.98;;
70010;SDS011;59543;37.950;-122.338;2022-10-16T03:10:06;28.63;;;10.57;;
70010;SDS011;59543;37.950;-122.338;2022-10-16T03:12:33;23.17;;;9.60;;
70010;SDS011;59543;37.950;-122.338;2022-10-16T03:14:59;31.02;;;10.50;;
70010;SDS011;59543;37.950;-122.338;2022-10-16T03:17:26;29.80;;;10.60;;
70010;SDS011;59543;37.950;-122.338;2022-10-16T03:19:52;31.38;;;11.30;;
70010;SDS011;59543;37.950;-122.338;2022-10-16T03:22:18;31.25;;;11.35;;
70010;SDS011;59543;37.950;-122.338;2022-10-16T03:24:44;29.13;;;12.75;;
70010;SDS011;59543;37.950;-122.338;2022-10-16T03:27:10;29.85;;;11.95;;
70010;SDS011;59543;37.950;-122.338;2022-10-16T03:29:37;24.70;;;10.85;;
70010;SDS011;59543;37.950;-122.338;2022-10-16T03:32:03;29.83;;;11.77;;
70010;SDS011;59543;37.950;-122.338;2022-10-16T03:34:29;34.58;;;11.50;;
70010;SDS011;59543;37.950;-122.338;2022-10-16T03:36:55;28.75;;;11.85;;
70010;SDS011;59543;37.950;-122.338;2022-10-16T03:39:21;28.45;;;11.43;;
70010;SDS011;59543;37.950;-122.338;2022-10-16T03:41:48;24.10;;;10.88;;
70010;SDS011;59543;37.950;-122.338;2022-10-16T03:44:14;27.90;;;11.13;;
70010;SDS011;59543;37.950;-122.338;2022-10-16T03:46:40;25.13;;;10.27;;
70010;SDS011;59543;37.950;-122.338;2022-10-16T03:49:07;31.13;;;11.45;;
70010;SDS011;59543;37.950;-122.338;2022-10-16T03:51:33;25.75;;;10.80;;
70010;SDS011;59543;37.950;-122.338;2022-10-16T03:53:59;29.33;;;10.73;;
70010;SDS011;59543;37.950;-122.338;2022-10-16T03:56:25;30.08;;;10.95;;
70010;SDS011;59543;37.950;-122.338;2022-10-16T03:58:52;29.83;;;10.63;;
70010;SDS011;59543;37.950;-122.338;2022-10-16T04:01:18;38.30;;;11.32;;
70010;SDS011;59543;37.950;-122.338;2022-10-16T04:03:44;25.80;;;10.85;;
70010;SDS011;59543;37.950;-122.338;2022-10-16T04:06:10;31.27;;;11.27;;
70010;SDS011;59543;37.950;-122.338;2022-10-16T04:08:36;27.80;;;10.82;;
70010;SDS011;59543;37.950;-122.338;2022-10-16T04:11:04;31.00;;;10.27;;
70010;SDS011;59543;37.950;-122.338;2022-10-16T04:13:30;33.38;;;12.18;;
70010;SDS011;59543;37.950;-122.338;2022-10-16T04:15:56;30.60;;;11.68;;
70010;SDS011;59543;37.950;-122.338;2022-10-16T04:18:23;36.17;;;11.88;;
70010;SDS011;59543;37.950;-122.338;2022-10-16T04:20:52;28.52;;;11.70;;
70010;SDS011;59543;37.950;-122.338;2022-10-16T04:23:19;26.88;;;11.57;;
70010;SDS011;59543;37.950;-122.338;2022-10-16T04:25:46;41.30;;;12.48;;
70010;SDS011;59543;37.950;-122.338;2022-10-16T04:28:12;27.10;;;10.68;;
70010;SDS011;59543;37.950;-122.338;2022-10-16T04:30:38;32.97;;;11.15;;
70010;SDS011;59543;37.950;-122.338;2022-10-16T04:33:05;31.70;;;11.02;;
70010;SDS011;59543;37.950;-122.338;2022-10-16T04:35:31;28.77;;;10.23;;
70010;SDS011;59543;37.950;-122.338;2022-10-16T04:38:00;34.28;;;11.45;;
70010;SDS011;59543;37.950;-122.338;2022-10-16T04:40:26;26.50;;;10.48;;
70010;SDS011;59543;37.950;-122.338;2022-10-16T04:42:52;34.72;;;11.45;;
70010;SDS011;59543;37.950;-122.338;2022-10-16T04:45:18;29.90;;;10.77;;
70010;SDS011;59543;37.950;-122.338;2022-10-16T04:47:44;31.80;;;10.85;;
70010;SDS011;59543;37.950;-122.338;2022-10-16T04:50:11;26.50;;;10.05;;
70010;SDS011;59543;37.950;-122.338;2022-10-16T04:52:37;25.77;;;10.38;;
70010;SDS011;59543;37.950;-122.338;2022-10-16T04:55:03;28.60;;;10.43;;
70010;SDS011;59543;37.950;-122.338;2022-10-16T04:57:30;31.90;;;10.18;;
70010;SDS011;59543;37.950;-122.338;2022-10-16T04:59:56;39.38;;;10.18;;
70010;SDS011;59543;37.950;-122.338;2022-10-16T05:02:22;33.53;;;10.95;;
70010;SDS011;59543;37.950;-122.338;2022-10-16T05:04:49;26.80;;;10.50;;
70010;SDS011;59543;37.950;-122.338;2022-10-16T05:07:15;24.33;;;10.18;;
70010;SDS011;59543;37.950;-122.338;2022-10-16T05:09:41;28.23;;;11.15;;
70010;SDS011;59543;37.950;-122.338;2022-10-16T05:12:07;30.58;;;11.13;;
70010;SDS011;59543;37.950;-122.338;2022-10-16T05:14:34;26.42;;;9.57;;
70010;SDS011;59543;37.950;-122.338;2022-10-16T05:17:00;30.58;;;10.30;;
70010;SDS011;59543;37.950;-122.338;2022-10-16T05:19:26;29.10;;;10.73;;
70010;SDS011;59543;37.950;-122.338;2022-10-16T05:21:52;29.85;;;10.60;;
70010;SDS011;59543;37.950;-122.338;2022-10-16T05:24:19;25.33;;;10.30;;
70010;SDS011;59543;37.950;-122.338;2022-10-16T05:26:45;31.52;;;10.35;;
70010;SDS011;59543;37.950;-122.338;2022-10-16T05:29:11;25.05;;;10.00;;
70010;SDS011;59543;37.950;-122.338;2022-10-16T05:31:37;28.42;;;10.45;;
70010;SDS011;59543;37.950;-122.338;2022-10-16T05:34:03;35.22;;;10.48;;
70010;SDS011;59543;37.950;-122.338;2022-10-16T05:36:29;28.30;;;10.23;;
70010;SDS011;59543;37.950;-122.338;2022-10-16T05:38:56;27.20;;;10.07;;
70010;SDS011;59543;37.950;-122.338;2022-10-16T05:41:22;24.88;;;10.00;;
70010;SDS011;59543;37.950;-122.338;2022-10-16T05:43:51;25.42;;;10.20;;
70010;SDS011;59543;37.950;-122.338;2022-10-16T05:46:17;30.17;;;10.00;;
70010;SDS011;59543;37.950;-122.338;2022-10-16T05:48:44;30.75;;;10.35;;
70010;SDS011;59543;37.950;-122.338;2022-10-16T05:51:11;25.30;;;9.68;;
70010;SDS011;59543;37.950;-122.338;2022-10-16T05:53:39;23.15;;;9.45;;
70010;SDS011;59543;37.950;-122.338;2022-10-16T05:56:06;31.02;;;10.15;;
70010;SDS011;59543;37.950;-122.338;2022-10-16T05:58:35;35.42;;;9.80;;
70010;SDS011;59543;37.950;-122.338;2022-10-16T06:01:03;29.50;;;9.60;;
70010;SDS011;59543;37.950;-122.338;2022-10-16T06:03:35;28.17;;;10.05;;
70010;SDS011;59543;37.950;-122.338;2022-10-16T06:08:55;30.23;;;10.43;;
70010;SDS011;59543;37.950;-122.338;2022-10-16T06:11:24;27.13;;;10.10;;
70010;SDS011;59543;37.950;-122.338;2022-10-16T06:13:52;28.27;;;9.52;;
70010;SDS011;59543;37.950;-122.338;2022-10-16T06:16:20;32.22;;;10.57;;
70010;SDS011;59543;37.950;-122.338;2022-10-16T06:18:46;23.25;;;8.63;;
70010;SDS011;59543;37.950;-122.338;2022-10-16T06:21:16;25.63;;;9.43;;
70010;SDS011;59543;37.950;-122.338;2022-10-16T06:23:44;26.20;;;9.38;;
70010;SDS011;59543;37.950;-122.338;2022-10-16T06:26:12;31.08;;;9.70;;
70010;SDS011;59543;37.950;-122.338;2022-10-16T06:28:40;30.38;;;9.55;;
70010;SDS011;59543;37.950;-122.338;2022-10-16T06:31:08;31.45;;;9.68;;
70010;SDS011;59543;37.950;-122.338;2022-10-16T06:33:35;24.13;;;9.20;;
70010;SDS011;59543;37.950;-122.338;2022-10-16T06:36:07;24.77;;;9.18;;
70010;SDS011;59543;37.950;-122.338;2022-10-16T06:38:36;28.40;;;9.68;;
70010;SDS011;59543;37.950;-122.338;2022-10-16T06:41:03;28.70;;;9.25;;
70010;SDS011;59543;37.950;-122.338;2022-10-16T06:43:31;33.50;;;10.13;;
70010;SDS011;59543;37.950;-122.338;2022-10-16T06:45:58;32.78;;;10.10;;
70010;SDS011;59543;37.950;-122.338;2022-10-16T06:48:26;24.45;;;9.35;;
70010;SDS011;59543;37.950;-122.338;2022-10-16T06:53:23;30.83;;;9.93;;
70010;SDS011;59543;37.950;-122.338;2022-10-16T06:55:50;24.02;;;9.77;;
70010;SDS011;59543;37.950;-122.338;2022-10-16T06:58:16;26.48;;;10.15;;
70010;SDS011;59543;37.950;-122.338;2022-10-16T07:00:42;25.83;;;9.68;;
70010;SDS011;59543;37.950;-122.338;2022-10-16T07:03:08;23.75;;;9.25;;
70010;SDS011;59543;37.950;-122.338;2022-10-16T07:05:38;30.42;;;9.70;;
70010;SDS011;59543;37.950;-122.338;2022-10-16T07:08:05;23.48;;;8.68;;
70010;SDS011;59543;37.950;-122.338;2022-10-16T07:10:32;23.60;;;9.77;;
70010;SDS011;59543;37.950;-122.338;2022-10-16T07:12:58;31.27;;;10.00;;
70010;SDS011;59543;37.950;-122.338;2022-10-16T07:15:25;29.10;;;10.02;;
70010;SDS011;59543;37.950;-122.338;2022-10-16T07:17:51;26.38;;;9.57;;
70010;SDS011;59543;37.950;-122.338;2022-10-16T07:20:18;30.60;;;10.10;;
70010;SDS011;59543;37.950;-122.338;2022-10-16T07:22:44;27.70;;;10.18;;
70010;SDS011;59543;37.950;-122.338;2022-10-16T07:25:11;32.15;;;10.52;;
70010;SDS011;59543;37.950;-122.338;2022-10-16T07:27:37;30.70;;;9.75;;
70010;SDS011;59543;37.950;-122.338;2022-10-16T07:30:04;32.85;;;10.25;;
70010;SDS011;59543;37.950;-122.338;2022-10-16T07:32:31;28.88;;;9.68;;
70010;SDS011;59543;37.950;-122.338;2022-10-16T07:34:57;32.95;;;10.15;;
70010;SDS011;59543;37.950;-122.338;2022-10-16T07:37:23;24.35;;;9.88;;
70010;SDS011;59543;37.950;-122.338;2022-10-16T07:39:49;23.00;;;9.45;;
70010;SDS011;59543;37.950;-122.338;2022-10-16T07:42:16;23.77;;;10.10;;
70010;SDS011;59543;37.950;-122.338;2022-10-16T07:44:43;33.83;;;10.55;;
70010;SDS011;59543;37.950;-122.338;2022-10-16T07:47:09;26.25;;;9.60;;
70010;SDS011;59543;37.950;-122.338;2022-10-16T07:49:35;32.80;;;10.65;;
70010;SDS011;59543;37.950;-122.338;2022-10-16T07:52:01;30.40;;;10.20;;
70010;SDS011;59543;37.950;-122.338;2022-10-16T07:54:28;29.92;;;9.85;;
70010;SDS011;59543;37.950;-122.338;2022-10-16T07:56:54;23.42;;;9.57;;
70010;SDS011;59543;37.950;-122.338;2022-10-16T07:59:20;26.15;;;10.27;;
70010;SDS011;59543;37.950;-122.338;2022-10-16T08:01:46;28.75;;;10.00;;
70010;SDS011;59543;37.950;-122.338;2022-10-16T08:04:14;35.25;;;10.90;;
70010;SDS011;59543;37.950;-122.338;2022-10-16T08:06:40;22.60;;;9.55;;
70010;SDS011;59543;37.950;-122.338;2022-10-16T08:09:07;30.73;;;9.95;;
70010;SDS011;59543;37.950;-122.338;2022-10-16T08:11:33;29.58;;;10.50;;
70010;SDS011;59543;37.950;-122.338;2022-10-16T08:14:00;28.40;;;9.90;;
70010;SDS011;59543;37.950;-122.338;2022-10-16T08:16:26;30.77;;;9.88;;
70010;SDS011;59543;37.950;-122.338;2022-10-16T08:18:53;30.23;;;10.80;;
70010;SDS011;59543;37.950;-122.338;2022-10-16T08:21:20;25.67;;;10.05;;
70010;SDS011;59543;37.950;-122.338;2022-10-16T08:23:52;29.00;;;10.50;;
70010;SDS011;59543;37.950;-122.338;2022-10-16T08:26:20;35.05;;;10.07;;
70010;SDS011;59543;37.950;-122.338;2022-10-16T08:28:49;25.17;;;10.60;;
70010;SDS011;59543;37.950;-122.338;2022-10-16T08:31:16;28.85;;;10.55;;
70010;SDS011;59543;37.950;-122.338;2022-10-16T08:33:43;22.73;;;10.18;;
70010;SDS011;59543;37.950;-122.338;2022-10-16T08:36:12;28.35;;;10.13;;
70010;SDS011;59543;37.950;-122.338;2022-10-16T08:38:39;28.63;;;10.57;;
70010;SDS011;59543;37.950;-122.338;2022-10-16T08:41:21;25.33;;;10.40;;
70010;SDS011;59543;37.950;-122.338;2022-10-16T08:49:26;27.00;;;11.25;;
70010;SDS011;59543;37.950;-122.338;2022-10-16T08:51:53;29.63;;;11.20;;
70010;SDS011;59543;37.950;-122.338;2022-10-16T08:56:56;28.58;;;10.70;;
70010;SDS011;59543;37.950;-122.338;2022-10-16T08:59:26;31.60;;;10.55;;
70010;SDS011;59543;37.950;-122.338;2022-10-16T09:01:52;29.95;;;11.10;;
70010;SDS011;59543;37.950;-122.338;2022-10-16T09:07:40;31.35;;;11.88;;
70010;SDS011;59543;37.950;-122.338;2022-10-16T09:13:27;26.63;;;11.75;;
70010;SDS011;59543;37.950;-122.338;2022-10-16T09:21:14;27.65;;;11.73;;
70010;SDS011;59543;37.950;-122.338;2022-10-16T09:23:45;26.48;;;11.88;;
70010;SDS011;59543;37.950;-122.338;2022-10-16T09:26:13;26.55;;;12.52;;
70010;SDS011;59543;37.950;-122.338;2022-10-16T09:28:40;38.67;;;13.20;;
70010;SDS011;59543;37.950;-122.338;2022-10-16T09:31:18;33.80;;;13.45;;
70010;SDS011;59543;37.950;-122.338;2022-10-16T09:33:48;33.42;;;14.55;;
70010;SDS011;59543;37.950;-122.338;2022-10-16T09:36:18;31.08;;;14.18;;
70010;SDS011;59543;37.950;-122.338;2022-10-16T09:38:46;37.72;;;14.65;;
70010;SDS011;59543;37.950;-122.338;2022-10-16T09:43:57;38.58;;;15.52;;
70010;SDS011;59543;37.950;-122.338;2022-10-16T09:46:29;36.85;;;16.38;;
70010;SDS011;59543;37.950;-122.338;2022-10-16T09:49:20;39.92;;;15.80;;
70010;SDS011;59543;37.950;-122.338;2022-10-16T09:51:51;34.85;;;15.93;;
70010;SDS011;59543;37.950;-122.338;2022-10-16T09:54:36;48.58;;;17.40;;
70010;SDS011;59543;37.950;-122.338;2022-10-16T09:57:06;35.50;;;16.48;;
70010;SDS011;59543;37.950;-122.338;2022-10-16T09:59:45;41.63;;;18.05;;
70010;SDS011;59543;37.950;-122.338;2022-10-16T10:02:16;36.47;;;17.15;;
70010;SDS011;59543;37.950;-122.338;2022-10-16T10:04:48;39.55;;;17.42;;
70010;SDS011;59543;37.950;-122.338;2022-10-16T10:07:25;39.33;;;17.45;;
70010;SDS011;59543;37.950;-122.338;2022-10-16T10:09:54;37.42;;;17.02;;
70010;SDS011;59543;37.950;-122.338;2022-10-16T10:12:26;38.95;;;17.00;;
70010;SDS011;59543;37.950;-122.338;2022-10-16T10:14:55;37.22;;;17.15;;
70010;SDS011;59543;37.950;-122.338;2022-10-16T10:17:23;39.25;;;17.02;;
70010;SDS011;59543;37.950;-122.338;2022-10-16T10:19:52;34.08;;;17.42;;
70010;SDS011;59543;37.950;-122.338;2022-10-16T10:22:30;32.10;;;16.63;;
70010;SDS011;59543;37.950;-122.338;2022-10-16T10:35:56;41.15;;;17.27;;
70010;SDS011;59543;37.950;-122.338;2022-10-16T10:38:30;32.47;;;15.85;;
70010;SDS011;59543;37.950;-122.338;2022-10-16T10:41:25;38.13;;;17.35;;
70010;SDS011;59543;37.950;-122.338;2022-10-16T10:46:56;30.25;;;14.90;;
70010;SDS011;59543;37.950;-122.338;2022-10-16T10:52:34;34.75;;;15.15;;
70010;SDS011;59543;37.950;-122.338;2022-10-16T11:01:10;34.30;;;14.32;;
70010;SDS011;59543;37.950;-122.338;2022-10-16T11:03:46;33.22;;;14.00;;
70010;SDS011;59543;37.950;-122.338;2022-10-16T11:06:30;34.08;;;14.27;;
70010;SDS011;59543;37.950;-122.338;2022-10-16T11:09:18;32.53;;;13.63;;
70010;SDS011;59543;37.950;-122.338;2022-10-16T11:11:51;29.85;;;14.52;;
70010;SDS011;59543;37.950;-122.338;2022-10-16T11:14:40;29.55;;;14.35;;
70010;SDS011;59543;37.950;-122.338;2022-10-16T11:20:11;38.17;;;15.32;;
70010;SDS011;59543;37.950;-122.338;2022-10-16T11:22:44;32.33;;;13.90;;
70010;SDS011;59543;37.950;-122.338;2022-10-16T11:25:31;32.85;;;14.45;;
70010;SDS011;59543;37.950;-122.338;2022-10-16T11:30:57;34.03;;;13.73;;
70010;SDS011;59543;37.950;-122.338;2022-10-16T11:36:28;29.33;;;13.25;;
70010;SDS011;59543;37.950;-122.338;2022-10-16T11:50:02;33.58;;;13.32;;
70010;SDS011;59543;37.950;-122.338;2022-10-16T11:53:11;29.55;;;13.30;;
70010;SDS011;59543;37.950;-122.338;2022-10-16T11:55:53;33.25;;;13.52;;
70010;SDS011;59543;37.950;-122.338;2022-10-16T12:08:49;37.78;;;13.65;;
70010;SDS011;59543;37.950;-122.338;2022-10-16T12:11:22;30.40;;;12.70;;
70010;SDS011;59543;37.950;-122.338;2022-10-16T12:14:03;35.53;;;12.18;;
70010;SDS011;59543;37.950;-122.338;2022-10-16T12:16:30;27.85;;;12.25;;
70010;SDS011;59543;37.950;-122.338;2022-10-16T12:19:13;23.95;;;11.18;;
70010;SDS011;59543;37.950;-122.338;2022-10-16T12:21:41;31.42;;;12.52;;
70010;SDS011;59543;37.950;-122.338;2022-10-16T12:26:56;39.22;;;13.27;;
70010;SDS011;59543;37.950;-122.338;2022-10-16T12:29:26;27.00;;;11.60;;
70010;SDS011;59543;37.950;-122.338;2022-10-16T12:31:57;30.70;;;11.82;;
70010;SDS011;59543;37.950;-122.338;2022-10-16T12:36:54;31.73;;;11.18;;
70010;SDS011;59543;37.950;-122.338;2022-10-16T12:39:32;34.80;;;11.95;;
70010;SDS011;59543;37.950;-122.338;2022-10-16T12:42:02;31.15;;;11.60;;
70010;SDS011;59543;37.950;-122.338;2022-10-16T12:44:34;30.15;;;11.85;;
70010;SDS011;59543;37.950;-122.338;2022-10-16T12:47:01;27.30;;;11.48;;
70010;SDS011;59543;37.950;-122.338;2022-10-16T12:51:54;28.48;;;12.07;;
70010;SDS011;59543;37.950;-122.338;2022-10-16T12:54:37;24.20;;;11.00;;
70010;SDS011;59543;37.950;-122.338;2022-10-16T13:08:18;32.00;;;11.48;;
70010;SDS011;59543;37.950;-122.338;2022-10-16T13:11:24;23.77;;;10.30;;
70010;SDS011;59543;37.950;-122.338;2022-10-16T13:19:29;37.90;;;10.90;;
70010;SDS011;59543;37.950;-122.338;2022-10-16T13:22:06;29.35;;;11.27;;
70010;SDS011;59543;37.950;-122.338;2022-10-16T13:30:14;29.20;;;11.13;;
70010;SDS011;59543;37.950;-122.338;2022-10-16T13:32:47;20.88;;;9.75;;
70010;SDS011;59543;37.950;-122.338;2022-10-16T13:35:21;25.90;;;10.65;;
70010;SDS011;59543;37.950;-122.338;2022-10-16T13:37:50;29.10;;;10.32;;
70010;SDS011;59543;37.950;-122.338;2022-10-16T13:40:21;23.20;;;10.02;;
70010;SDS011;59543;37.950;-122.338;2022-10-16T13:42:49;33.35;;;11.00;;
70010;SDS011;59543;37.950;-122.338;2022-10-16T13:45:19;26.45;;;9.57;;
70010;SDS011;59543;37.950;-122.338;2022-10-16T13:47:46;23.63;;;9.57;;
70010;SDS011;59543;37.950;-122.338;2022-10-16T13:50:15;28.92;;;10.43;;
70010;SDS011;59543;37.950;-122.338;2022-10-16T13:52:43;24.02;;;9.82;;
70010;SDS011;59543;37.950;-122.338;2022-10-16T13:55:10;34.17;;;9.75;;
70010;SDS011;59543;37.950;-122.338;2022-10-16T13:57:41;24.73;;;9.60;;
70010;SDS011;59543;37.950;-122.338;2022-10-16T14:00:18;23.63;;;9.02;;
70010;SDS011;59543;37.950;-122.338;2022-10-16T14:02:45;25.58;;;9.25;;
70010;SDS011;59543;37.950;-122.338;2022-10-16T14:05:23;33.67;;;9.40;;
70010;SDS011;59543;37.950;-122.338;2022-10-16T14:07:49;25.60;;;8.75;;
70010;SDS011;59543;37.950;-122.338;2022-10-16T14:12:55;23.30;;;8.07;;
70010;SDS011;59543;37.950;-122.338;2022-10-16T14:15:29;24.65;;;8.35;;
70010;SDS011;59543;37.950;-122.338;2022-10-16T14:17:57;32.05;;;10.00;;
70010;SDS011;59543;37.950;-122.338;2022-10-16T14:20:26;42.63;;;9.40;;
70010;SDS011;59543;37.950;-122.338;2022-10-16T14:25:44;82.95;;;10.48;;
70010;SDS011;59543;37.950;-122.338;2022-10-16T14:28:18;49.38;;;9.80;;
70010;SDS011;59543;37.950;-122.338;2022-10-16T14:30:56;56.22;;;10.02;;
70010;SDS011;59543;37.950;-122.338;2022-10-16T14:38:39;70.65;;;11.25;;
70010;SDS011;59543;37.950;-122.338;2022-10-16T14:41:13;49.90;;;10.13;;
70010;SDS011;59543;37.950;-122.338;2022-10-16T14:43:41;30.48;;;8.80;;
70010;SDS011;59543;37.950;-122.338;2022-10-16T14:46:12;24.70;;;7.80;;
70010;SDS011;59543;37.950;-122.338;2022-10-16T14:48:43;26.80;;;8.38;;
70010;SDS011;59543;37.950;-122.338;2022-10-16T14:51:15;28.08;;;8.13;;
70010;SDS011;59543;37.950;-122.338;2022-10-16T14:53:42;27.15;;;8.18;;
70010;SDS011;59543;37.950;-122.338;2022-10-16T14:56:13;23.95;;;8.35;;
70010;SDS011;59543;37.950;-122.338;2022-10-16T14:58:53;26.23;;;7.80;;
70010;SDS011;59543;37.950;-122.338;2022-10-16T15:01:20;23.90;;;8.18;;
70010;SDS011;59543;37.950;-122.338;2022-10-16T15:03:47;29.45;;;8.18;;
70010;SDS011;59543;37.950;-122.338;2022-10-16T15:06:16;21.95;;;8.07;;
70010;SDS011;59543;37.950;-122.338;2022-10-16T15:08:42;27.90;;;8.00;;
70010;SDS011;59543;37.950;-122.338;2022-10-16T15:11:12;22.90;;;8.02;;
70010;SDS011;59543;37.950;-122.338;2022-10-16T15:13:41;29.77;;;8.65;;
70010;SDS011;59543;37.950;-122.338;2022-10-16T15:16:10;25.58;;;7.85;;
70010;SDS011;59543;37.950;-122.338;2022-10-16T15:18:38;29.13;;;8.27;;
70010;SDS011;59543;37.950;-122.338;2022-10-16T15:21:04;24.27;;;7.32;;
70010;SDS011;59543;37.950;-122.338;2022-10-16T15:23:31;26.30;;;7.28;;
70010;SDS011;59543;37.950;-122.338;2022-10-16T15:25:57;25.48;;;8.15;;
70010;SDS011;59543;37.950;-122.338;2022-10-16T15:28:24;33.17;;;7.32;;
70010;SDS011;59543;37.950;-122.338;2022-10-16T15:30:54;19.88;;;6.95;;
70010;SDS011;59543;37.950;-122.338;2022-10-16T15:33:25;32.08;;;7.43;;
70010;SDS011;59543;37.950;-122.338;2022-10-16T15:35:55;21.35;;;7.00;;
70010;SDS011;59543;37.950;-122.338;2022-10-16T15:38:22;20.95;;;7.07;;
70010;SDS011;59543;37.950;-122.338;2022-10-16T15:40:48;23.88;;;7.47;;
70010;SDS011;59543;37.950;-122.338;2022-10-16T15:43:15;30.80;;;8.60;;
70010;SDS011;59543;37.950;-122.338;2022-10-16T15:45:42;21.42;;;7.07;;
70010;SDS011;59543;37.950;-122.338;2022-10-16T15:48:12;30.23;;;7.93;;
70010;SDS011;59543;37.950;-122.338;2022-10-16T15:50:39;25.88;;;7.78;;
70010;SDS011;59543;37.950;-122.338;2022-10-16T15:53:06;23.17;;;6.90;;
70010;SDS011;59543;37.950;-122.338;2022-10-16T15:55:32;21.00;;;7.28;;
70010;SDS011;59543;37.950;-122.338;2022-10-16T15:58:01;32.00;;;7.63;;
70010;SDS011;59543;37.950;-122.338;2022-10-16T16:00:27;33.38;;;7.10;;
70010;SDS011;59543;37.950;-122.338;2022-10-16T16:02:53;23.08;;;7.13;;
70010;SDS011;59543;37.950;-122.338;2022-10-16T16:05:20;37.95;;;7.20;;
70010;SDS011;59543;37.950;-122.338;2022-10-16T16:07:47;27.90;;;7.68;;
70010;SDS011;59543;37.950;-122.338;2022-10-16T16:10:14;26.23;;;6.60;;
70010;SDS011;59543;37.950;-122.338;2022-10-16T16:12:40;23.88;;;8.02;;
70010;SDS011;59543;37.950;-122.338;2022-10-16T16:15:07;23.00;;;7.50;;
70010;SDS011;59543;37.950;-122.338;2022-10-16T16:17:34;25.20;;;7.82;;
70010;SDS011;59543;37.950;-122.338;2022-10-16T16:20:01;26.17;;;7.85;;
70010;SDS011;59543;37.950;-122.338;2022-10-16T16:22:29;26.30;;;7.30;;
70010;SDS011;59543;37.950;-122.338;2022-10-16T16:24:56;24.13;;;7.53;;